sensor_id;sensor_type;location;lat;lon;timestamp;P1;durP1;ratioP1;P2;durP2;ratioP2
41512;SDS011;27244;59.940;30.280;2023-04-01T00:01:45;2.55;;;1.98;;
41512;SDS011;27244;59.940;30.280;2023-04-01T00:04:12;2.08;;;1.30;;
41512;SDS011;27244;59.940;30.280;2023-04-01T00:06:40;1.77;;;1.45;;
41512;SDS011;27244;59.940;30.280;2023-04-01T00:09:07;1.50;;;1.40;;
41512;SDS011;27244;59.940;30.280;2023-04-01T00:11:34;2.08;;;1.30;;
41512;SDS011;27244;59.940;30.280;2023-04-01T00:14:01;1.95;;;1.30;;
41512;SDS011;27244;59.940;30.280;2023-04-01T00:16:30;1.40;;;1.23;;
41512;SDS011;27244;59.940;30.280;2023-04-01T00:18:57;1.80;;;1.33;;
41512;SDS011;27244;59.940;30.280;2023-04-01T00:21:25;2.42;;;1.30;;
41512;SDS011;27244;59.940;30.280;2023-04-01T00:23:52;1.20;;;1.10;;
41512;SDS011;27244;59.940;30.280;2023-04-01T00:26:19;2.40;;;1.50;;
41512;SDS011;27244;59.940;30.280;2023-04-01T00:28:46;1.38;;;1.27;;
41512;SDS011;27244;59.940;30.280;2023-04-01T00:31:14;1.88;;;1.45;;
41512;SDS011;27244;59.940;30.280;2023-04-01T00:33:42;1.48;;;1.20;;
41512;SDS011;27244;59.940;30.280;2023-04-01T00:36:10;3.47;;;1.30;;
41512;SDS011;27244;59.940;30.280;2023-04-01T00:38:38;1.92;;;1.10;;
41512;SDS011;27244;59.940;30.280;2023-04-01T00:41:05;2.92;;;1.20;;
41512;SDS011;27244;59.940;30.280;2023-04-01T00:43:32;2.70;;;1.08;;
41512;SDS011;27244;59.940;30.280;2023-04-01T00:46:00;1.40;;;1.10;;
41512;SDS011;27244;59.940;30.280;2023-04-01T00:48:28;2.10;;;1.10;;
41512;SDS011;27244;59.940;30.280;2023-04-01T00:50:59;1.20;;;1.10;;
41512;SDS011;27244;59.940;30.280;2023-04-01T00:53:29;1.45;;;1.35;;
41512;SDS011;27244;59.940;30.280;2023-04-01T00:56:00;1.58;;;1.15;;
41512;SDS011;27244;59.940;30.280;2023-04-01T00:58:29;1.25;;;1.00;;
41512;SDS011;27244;59.940;30.280;2023-04-01T01:00:59;1.30;;;1.20;;
41512;SDS011;27244;59.940;30.280;2023-04-01T01:03:27;1.33;;;1.05;;
41512;SDS011;27244;59.940;30.280;2023-04-01T01:06:03;2.15;;;1.10;;
41512;SDS011;27244;59.940;30.280;2023-04-01T01:08:44;2.42;;;1.98;;
41512;SDS011;27244;59.940;30.280;2023-04-01T01:11:34;1.88;;;1.23;;
41512;SDS011;27244;59.940;30.280;2023-04-01T01:14:08;1.33;;;1.00;;
41512;SDS011;27244;59.940;30.280;2023-04-01T01:16:43;1.20;;;1.10;;
41512;SDS011;27244;59.940;30.280;2023-04-01T01:19:19;1.50;;;1.10;;
41512;SDS011;27244;59.940;30.280;2023-04-01T01:22:12;1.30;;;1.15;;
41512;SDS011;27244;59.940;30.280;2023-04-01T01:25:01;1.58;;;1.00;;
41512;SDS011;27244;59.940;30.280;2023-04-01T01:27:41;1.23;;;0.98;;
41512;SDS011;27244;59.940;30.280;2023-04-01T01:30:20;1.70;;;1.20;;
41512;SDS011;27244;59.940;30.280;2023-04-01T01:33:01;2.00;;;1.02;;
41512;SDS011;27244;59.940;30.280;2023-04-01T01:35:42;1.20;;;0.88;;
41512;SDS011;27244;59.940;30.280;2023-04-01T01:38:17;1.02;;;0.85;;
41512;SDS011;27244;59.940;30.280;2023-04-01T01:40:54;1.48;;;1.08;;
41512;SDS011;27244;59.940;30.280;2023-04-01T01:43:25;0.88;;;0.75;;
41512;SDS011;27244;59.940;30.280;2023-04-01T01:45:55;0.88;;;0.85;;
41512;SDS011;27244;59.940;30.280;2023-04-01T01:48:27;1.38;;;1.00;;
41512;SDS011;27244;59.940;30.280;2023-04-01T01:50:57;2.20;;;1.10;;
41512;SDS011;27244;59.940;30.280;2023-04-01T01:53:25;5.28;;;1.10;;
41512;SDS011;27244;59.940;30.280;2023-04-01T01:55:52;1.20;;;1.02;;
41512;SDS011;27244;59.940;30.280;2023-04-01T01:58:19;1.20;;;1.00;;
41512;SDS011;27244;59.940;30.280;2023-04-01T02:00:51;1.70;;;0.90;;
41512;SDS011;27244;59.940;30.280;2023-04-01T02:03:21;1.38;;;1.08;;
41512;SDS011;27244;59.940;30.280;2023-04-01T02:05:52;1.88;;;0.88;;
41512;SDS011;27244;59.940;30.280;2023-04-01T02:08:25;1.52;;;1.00;;
41512;SDS011;27244;59.940;30.280;2023-04-01T02:10:55;1.65;;;0.93;;
41512;SDS011;27244;59.940;30.280;2023-04-01T02:13:31;1.23;;;1.05;;
41512;SDS011;27244;59.940;30.280;2023-04-01T02:16:06;2.42;;;1.20;;
41512;SDS011;27244;59.940;30.280;2023-04-01T02:18:39;1.08;;;0.98;;
41512;SDS011;27244;59.940;30.280;2023-04-01T02:21:07;2.47;;;1.45;;
41512;SDS011;27244;59.940;30.280;2023-04-01T02:23:37;1.05;;;0.95;;
41512;SDS011;27244;59.940;30.280;2023-04-01T02:26:05;1.20;;;0.95;;
41512;SDS011;27244;59.940;30.280;2023-04-01T02:28:34;1.33;;;1.00;;
41512;SDS011;27244;59.940;30.280;2023-04-01T02:31:04;1.00;;;0.90;;
41512;SDS011;27244;59.940;30.280;2023-04-01T02:33:33;1.33;;;0.93;;
41512;SDS011;27244;59.940;30.280;2023-04-01T02:36:00;1.77;;;1.05;;
41512;SDS011;27244;59.940;30.280;2023-04-01T02:38:27;1.70;;;0.82;;
41512;SDS011;27244;59.940;30.280;2023-04-01T02:40:58;0.93;;;0.70;;
41512;SDS011;27244;59.940;30.280;2023-04-01T02:43:27;1.70;;;1.10;;
41512;SDS011;27244;59.940;30.280;2023-04-01T02:45:55;1.05;;;0.77;;
41512;SDS011;27244;59.940;30.280;2023-04-01T02:48:22;1.27;;;0.93;;
41512;SDS011;27244;59.940;30.280;2023-04-01T02:50:49;0.90;;;0.80;;
41512;SDS011;27244;59.940;30.280;2023-04-01T02:53:17;1.23;;;0.90;;
41512;SDS011;27244;59.940;30.280;2023-04-01T02:55:44;1.20;;;0.90;;
41512;SDS011;27244;59.940;30.280;2023-04-01T02:58:12;0.60;;;0.60;;
41512;SDS011;27244;59.940;30.280;2023-04-01T03:00:39;1.00;;;0.90;;
41512;SDS011;27244;59.940;30.280;2023-04-01T03:03:06;4.25;;;1.00;;
41512;SDS011;27244;59.940;30.280;2023-04-01T03:05:33;0.77;;;0.70;;
41512;SDS011;27244;59.940;30.280;2023-04-01T03:08:00;1.05;;;0.85;;
41512;SDS011;27244;59.940;30.280;2023-04-01T03:10:27;0.98;;;0.82;;
41512;SDS011;27244;59.940;30.280;2023-04-01T03:12:54;1.50;;;1.00;;
41512;SDS011;27244;59.940;30.280;2023-04-01T03:15:23;1.92;;;1.00;;
41512;SDS011;27244;59.940;30.280;2023-04-01T03:17:50;1.55;;;0.82;;
41512;SDS011;27244;59.940;30.280;2023-04-01T03:20:17;1.08;;;0.82;;
41512;SDS011;27244;59.940;30.280;2023-04-01T03:22:44;1.08;;;0.90;;
41512;SDS011;27244;59.940;30.280;2023-04-01T03:25:11;0.80;;;0.60;;
41512;SDS011;27244;59.940;30.280;2023-04-01T03:27:39;1.95;;;0.68;;
41512;SDS011;27244;59.940;30.280;2023-04-01T03:30:07;0.90;;;0.82;;
41512;SDS011;27244;59.940;30.280;2023-04-01T03:32:44;1.55;;;0.90;;
41512;SDS011;27244;59.940;30.280;2023-04-01T03:35:11;0.93;;;0.73;;
41512;SDS011;27244;59.940;30.280;2023-04-01T03:37:38;2.25;;;1.00;;
41512;SDS011;27244;59.940;30.280;2023-04-01T03:40:06;1.35;;;1.00;;
41512;SDS011;27244;59.940;30.280;2023-04-01T03:42:34;1.02;;;0.80;;
41512;SDS011;27244;59.940;30.280;2023-04-01T03:45:01;0.65;;;0.65;;
41512;SDS011;27244;59.940;30.280;2023-04-01T03:47:31;1.10;;;0.80;;
41512;SDS011;27244;59.940;30.280;2023-04-01T03:50:00;1.05;;;0.70;;
41512;SDS011;27244;59.940;30.280;2023-04-01T03:52:27;1.13;;;0.70;;
41512;SDS011;27244;59.940;30.280;2023-04-01T03:54:54;0.73;;;0.70;;
41512;SDS011;27244;59.940;30.280;2023-04-01T03:57:21;0.90;;;0.70;;
41512;SDS011;27244;59.940;30.280;2023-04-01T03:59:54;1.42;;;1.00;;
41512;SDS011;27244;59.940;30.280;2023-04-01T04:02:21;1.08;;;0.70;;
41512;SDS011;27244;59.940;30.280;2023-04-01T04:04:48;0.93;;;0.73;;
41512;SDS011;27244;59.940;30.280;2023-04-01T04:07:16;0.95;;;0.88;;
41512;SDS011;27244;59.940;30.280;2023-04-01T04:09:58;1.48;;;0.70;;
41512;SDS011;27244;59.940;30.280;2023-04-01T04:12:25;1.17;;;0.93;;
41512;SDS011;27244;59.940;30.280;2023-04-01T04:14:52;1.02;;;0.75;;
41512;SDS011;27244;59.940;30.280;2023-04-01T04:17:20;0.90;;;0.85;;
41512;SDS011;27244;59.940;30.280;2023-04-01T04:19:47;1.05;;;0.65;;
41512;SDS011;27244;59.940;30.280;2023-04-01T04:22:18;1.27;;;0.88;;
41512;SDS011;27244;59.940;30.280;2023-04-01T04:24:46;0.70;;;0.68;;
41512;SDS011;27244;59.940;30.280;2023-04-01T04:27:13;2.08;;;0.90;;
41512;SDS011;27244;59.940;30.280;2023-04-01T04:30:02;1.88;;;0.80;;
41512;SDS011;27244;59.940;30.280;2023-04-01T04:32:31;1.30;;;0.90;;
41512;SDS011;27244;59.940;30.280;2023-04-01T04:34:58;2.67;;;0.98;;
41512;SDS011;27244;59.940;30.280;2023-04-01T04:37:26;1.00;;;0.80;;
41512;SDS011;27244;59.940;30.280;2023-04-01T04:39:54;2.47;;;0.95;;
41512;SDS011;27244;59.940;30.280;2023-04-01T04:42:21;1.05;;;0.80;;
41512;SDS011;27244;59.940;30.280;2023-04-01T04:44:52;0.82;;;0.73;;
41512;SDS011;27244;59.940;30.280;2023-04-01T04:47:19;1.33;;;0.80;;
41512;SDS011;27244;59.940;30.280;2023-04-01T04:49:46;1.30;;;0.93;;
41512;SDS011;27244;59.940;30.280;2023-04-01T04:52:17;1.20;;;0.77;;
41512;SDS011;27244;59.940;30.280;2023-04-01T04:54:45;1.02;;;0.80;;
41512;SDS011;27244;59.940;30.280;2023-04-01T04:57:12;1.08;;;0.80;;
41512;SDS011;27244;59.940;30.280;2023-04-01T04:59:45;1.30;;;0.80;;
41512;SDS011;27244;59.940;30.280;2023-04-01T05:02:32;1.45;;;0.90;;
41512;SDS011;27244;59.940;30.280;2023-04-01T05:04:59;1.38;;;1.05;;
41512;SDS011;27244;59.940;30.280;2023-04-01T05:07:27;2.78;;;1.23;;
41512;SDS011;27244;59.940;30.280;2023-04-01T05:09:55;1.75;;;0.80;;
41512;SDS011;27244;59.940;30.280;2023-04-01T05:12:22;1.38;;;0.73;;
41512;SDS011;27244;59.940;30.280;2023-04-01T05:14:56;1.20;;;0.82;;
41512;SDS011;27244;59.940;30.280;2023-04-01T05:17:23;1.10;;;0.93;;
41512;SDS011;27244;59.940;30.280;2023-04-01T05:19:51;1.90;;;0.70;;
41512;SDS011;27244;59.940;30.280;2023-04-01T05:22:18;1.00;;;0.70;;
41512;SDS011;27244;59.940;30.280;2023-04-01T05:24:45;2.97;;;0.70;;
41512;SDS011;27244;59.940;30.280;2023-04-01T05:27:14;0.90;;;0.73;;
41512;SDS011;27244;59.940;30.280;2023-04-01T05:29:41;1.15;;;0.70;;
41512;SDS011;27244;59.940;30.280;2023-04-01T05:32:24;1.35;;;0.90;;
41512;SDS011;27244;59.940;30.280;2023-04-01T05:34:51;0.90;;;0.70;;
41512;SDS011;27244;59.940;30.280;2023-04-01T05:37:21;2.58;;;1.00;;
41512;SDS011;27244;59.940;30.280;2023-04-01T05:39:49;0.85;;;0.80;;
41512;SDS011;27244;59.940;30.280;2023-04-01T05:42:17;1.20;;;0.88;;
41512;SDS011;27244;59.940;30.280;2023-04-01T05:44:45;1.45;;;0.88;;
41512;SDS011;27244;59.940;30.280;2023-04-01T05:47:50;1.48;;;0.80;;
41512;SDS011;27244;59.940;30.280;2023-04-01T05:50:18;1.30;;;0.82;;
41512;SDS011;27244;59.940;30.280;2023-04-01T05:52:45;1.08;;;0.85;;
41512;SDS011;27244;59.940;30.280;2023-04-01T05:55:12;1.33;;;0.90;;
41512;SDS011;27244;59.940;30.280;2023-04-01T05:57:41;1.55;;;0.93;;
41512;SDS011;27244;59.940;30.280;2023-04-01T06:00:08;1.08;;;0.77;;
41512;SDS011;27244;59.940;30.280;2023-04-01T06:02:39;1.23;;;0.98;;
41512;SDS011;27244;59.940;30.280;2023-04-01T06:05:12;1.63;;;0.90;;
41512;SDS011;27244;59.940;30.280;2023-04-01T06:07:45;1.33;;;0.80;;
41512;SDS011;27244;59.940;30.280;2023-04-01T06:10:14;0.85;;;0.70;;
41512;SDS011;27244;59.940;30.280;2023-04-01T06:12:47;1.20;;;0.80;;
41512;SDS011;27244;59.940;30.280;2023-04-01T06:15:22;1.33;;;0.93;;
41512;SDS011;27244;59.940;30.280;2023-04-01T06:18:03;1.17;;;0.80;;
41512;SDS011;27244;59.940;30.280;2023-04-01T06:20:50;1.48;;;0.80;;
41512;SDS011;27244;59.940;30.280;2023-04-01T06:23:29;1.48;;;0.80;;
41512;SDS011;27244;59.940;30.280;2023-04-01T06:26:18;1.38;;;1.00;;
41512;SDS011;27244;59.940;30.280;2023-04-01T06:32:14;2.05;;;0.80;;
41512;SDS011;27244;59.940;30.280;2023-04-01T06:34:56;3.75;;;0.95;;
41512;SDS011;27244;59.940;30.280;2023-04-01T06:37:44;1.00;;;0.80;;
41512;SDS011;27244;59.940;30.280;2023-04-01T06:40:38;1.55;;;0.70;;
41512;SDS011;27244;59.940;30.280;2023-04-01T06:43:33;1.40;;;0.80;;
41512;SDS011;27244;59.940;30.280;2023-04-01T06:46:19;1.63;;;0.98;;
41512;SDS011;27244;59.940;30.280;2023-04-01T06:49:24;0.93;;;0.80;;
41512;SDS011;27244;59.940;30.280;2023-04-01T06:52:32;2.72;;;0.80;;
41512;SDS011;27244;59.940;30.280;2023-04-01T06:55:29;1.05;;;0.77;;
41512;SDS011;27244;59.940;30.280;2023-04-01T06:58:29;2.83;;;1.00;;
41512;SDS011;27244;59.940;30.280;2023-04-01T07:01:09;2.28;;;0.85;;
41512;SDS011;27244;59.940;30.280;2023-04-01T07:03:41;2.25;;;0.60;;
41512;SDS011;27244;59.940;30.280;2023-04-01T07:06:20;1.80;;;0.75;;
41512;SDS011;27244;59.940;30.280;2023-04-01T07:08:56;1.58;;;1.23;;
41512;SDS011;27244;59.940;30.280;2023-04-01T07:11:43;0.63;;;0.55;;
41512;SDS011;27244;59.940;30.280;2023-04-01T07:14:32;1.67;;;0.60;;
41512;SDS011;27244;59.940;30.280;2023-04-01T07:17:03;1.55;;;0.80;;
41512;SDS011;27244;59.940;30.280;2023-04-01T07:22:10;3.30;;;0.90;;
41512;SDS011;27244;59.940;30.280;2023-04-01T07:25:03;0.77;;;0.50;;
41512;SDS011;27244;59.940;30.280;2023-04-01T07:27:37;1.85;;;0.60;;
41512;SDS011;27244;59.940;30.280;2023-04-01T07:30:06;2.05;;;0.63;;
41512;SDS011;27244;59.940;30.280;2023-04-01T07:32:40;2.33;;;0.60;;
41512;SDS011;27244;59.940;30.280;2023-04-01T07:35:20;6.30;;;1.38;;
41512;SDS011;27244;59.940;30.280;2023-04-01T07:38:05;5.90;;;1.00;;
41512;SDS011;27244;59.940;30.280;2023-04-01T07:40:43;6.70;;;1.20;;
41512;SDS011;27244;59.940;30.280;2023-04-01T07:43:20;4.95;;;1.10;;
41512;SDS011;27244;59.940;30.280;2023-04-01T07:46:20;5.72;;;1.00;;
41512;SDS011;27244;59.940;30.280;2023-04-01T07:48:58;6.60;;;1.00;;
41512;SDS011;27244;59.940;30.280;2023-04-01T07:51:36;4.75;;;1.15;;
41512;SDS011;27244;59.940;30.280;2023-04-01T07:54:11;3.22;;;1.02;;
41512;SDS011;27244;59.940;30.280;2023-04-01T07:56:47;4.75;;;0.90;;
41512;SDS011;27244;59.940;30.280;2023-04-01T07:59:27;6.65;;;1.40;;
41512;SDS011;27244;59.940;30.280;2023-04-01T08:02:02;3.65;;;1.70;;
41512;SDS011;27244;59.940;30.280;2023-04-01T08:04:39;5.03;;;1.60;;
41512;SDS011;27244;59.940;30.280;2023-04-01T08:07:20;6.05;;;1.92;;
41512;SDS011;27244;59.940;30.280;2023-04-01T08:10:13;3.25;;;1.40;;
41512;SDS011;27244;59.940;30.280;2023-04-01T08:13:07;9.30;;;2.10;;
41512;SDS011;27244;59.940;30.280;2023-04-01T08:15:53;6.93;;;1.55;;
41512;SDS011;27244;59.940;30.280;2023-04-01T08:18:35;3.80;;;1.45;;
41512;SDS011;27244;59.940;30.280;2023-04-01T08:21:23;4.18;;;1.30;;
41512;SDS011;27244;59.940;30.280;2023-04-01T08:23:55;5.30;;;1.40;;
41512;SDS011;27244;59.940;30.280;2023-04-01T08:26:28;5.95;;;1.60;;
41512;SDS011;27244;59.940;30.280;2023-04-01T08:29:02;4.78;;;1.33;;
41512;SDS011;27244;59.940;30.280;2023-04-01T08:31:34;7.90;;;1.70;;
41512;SDS011;27244;59.940;30.280;2023-04-01T08:34:08;3.40;;;1.63;;
41512;SDS011;27244;59.940;30.280;2023-04-01T08:36:45;7.22;;;1.52;;
41512;SDS011;27244;59.940;30.280;2023-04-01T08:39:20;3.30;;;1.20;;
41512;SDS011;27244;59.940;30.280;2023-04-01T08:41:58;2.53;;;1.05;;
41512;SDS011;27244;59.940;30.280;2023-04-01T08:54:03;2.97;;;1.33;;
41512;SDS011;27244;59.940;30.280;2023-04-01T08:56:54;2.45;;;1.00;;
41512;SDS011;27244;59.940;30.280;2023-04-01T08:59:46;4.13;;;1.20;;
41512;SDS011;27244;59.940;30.280;2023-04-01T09:03:20;3.97;;;1.10;;
41512;SDS011;27244;59.940;30.280;2023-04-01T09:06:11;2.33;;;0.95;;
41512;SDS011;27244;59.940;30.280;2023-04-01T09:09:01;1.50;;;0.88;;
41512;SDS011;27244;59.940;30.280;2023-04-01T09:11:43;2.88;;;0.90;;
41512;SDS011;27244;59.940;30.280;2023-04-01T09:17:28;2.95;;;0.90;;
41512;SDS011;27244;59.940;30.280;2023-04-01T09:20:19;2.50;;;0.90;;
41512;SDS011;27244;59.940;30.280;2023-04-01T09:23:07;2.17;;;0.90;;
41512;SDS011;27244;59.940;30.280;2023-04-01T09:25:55;3.95;;;1.10;;
41512;SDS011;27244;59.940;30.280;2023-04-01T09:28:34;1.90;;;1.05;;
41512;SDS011;27244;59.940;30.280;2023-04-01T09:31:19;1.88;;;0.82;;
41512;SDS011;27244;59.940;30.280;2023-04-01T09:37:19;2.55;;;0.80;;
41512;SDS011;27244;59.940;30.280;2023-04-01T09:39:56;6.32;;;1.85;;
41512;SDS011;27244;59.940;30.280;2023-04-01T09:42:43;4.78;;;0.90;;
41512;SDS011;27244;59.940;30.280;2023-04-01T09:45:29;1.85;;;0.60;;
41512;SDS011;27244;59.940;30.280;2023-04-01T09:48:08;2.75;;;0.80;;
41512;SDS011;27244;59.940;30.280;2023-04-01T09:50:50;3.13;;;0.90;;
41512;SDS011;27244;59.940;30.280;2023-04-01T09:53:35;1.80;;;0.90;;
41512;SDS011;27244;59.940;30.280;2023-04-01T10:06:26;3.50;;;0.75;;
41512;SDS011;27244;59.940;30.280;2023-04-01T10:27:49;0.93;;;0.60;;
41512;SDS011;27244;59.940;30.280;2023-04-01T10:34:08;2.50;;;0.50;;
41512;SDS011;27244;59.940;30.280;2023-04-01T10:36:53;2.63;;;0.60;;
41512;SDS011;27244;59.940;30.280;2023-04-01T10:43:50;0.80;;;0.50;;
41512;SDS011;27244;59.940;30.280;2023-04-01T10:46:45;1.13;;;0.60;;
41512;SDS011;27244;59.940;30.280;2023-04-01T10:49:49;0.77;;;0.60;;
41512;SDS011;27244;59.940;30.280;2023-04-01T11:06:29;0.60;;;0.50;;
41512;SDS011;27244;59.940;30.280;2023-04-01T11:09:50;1.63;;;0.55;;
41512;SDS011;27244;59.940;30.280;2023-04-01T11:16:17;0.82;;;0.40;;
41512;SDS011;27244;59.940;30.280;2023-04-01T11:19:20;3.95;;;0.50;;
41512;SDS011;27244;59.940;30.280;2023-04-01T11:22:19;0.57;;;0.52;;
41512;SDS011;27244;59.940;30.280;2023-04-01T11:25:05;0.70;;;0.55;;
41512;SDS011;27244;59.940;30.280;2023-04-01T11:28:24;1.25;;;0.70;;
41512;SDS011;27244;59.940;30.280;2023-04-01T11:31:14;1.90;;;0.40;;
41512;SDS011;27244;59.940;30.280;2023-04-01T11:33:57;0.98;;;0.50;;
41512;SDS011;27244;59.940;30.280;2023-04-01T11:36:35;1.98;;;0.52;;
41512;SDS011;27244;59.940;30.280;2023-04-01T11:39:16;0.68;;;0.57;;
41512;SDS011;27244;59.940;30.280;2023-04-01T11:42:12;2.97;;;0.63;;
41512;SDS011;27244;59.940;30.280;2023-04-01T11:45:12;0.50;;;0.50;;
41512;SDS011;27244;59.940;30.280;2023-04-01T11:47:56;2.05;;;0.50;;
41512;SDS011;27244;59.940;30.280;2023-04-01T11:50:45;1.97;;;0.30;;
41512;SDS011;27244;59.940;30.280;2023-04-01T11:53:31;2.05;;;0.60;;
41512;SDS011;27244;59.940;30.280;2023-04-01T11:56:14;2.65;;;0.65;;
41512;SDS011;27244;59.940;30.280;2023-04-01T11:58:55;2.13;;;0.95;;
41512;SDS011;27244;59.940;30.280;2023-04-01T12:01:50;1.05;;;0.52;;
41512;SDS011;27244;59.940;30.280;2023-04-01T12:04:45;1.60;;;0.75;;
41512;SDS011;27244;59.940;30.280;2023-04-01T12:07:24;1.02;;;0.50;;
41512;SDS011;27244;59.940;30.280;2023-04-01T12:10:02;3.88;;;0.60;;
41512;SDS011;27244;59.940;30.280;2023-04-01T12:12:40;0.38;;;0.30;;
41512;SDS011;27244;59.940;30.280;2023-04-01T12:15:17;0.32;;;0.30;;
41512;SDS011;27244;59.940;30.280;2023-04-01T12:17:53;1.27;;;0.50;;
41512;SDS011;27244;59.940;30.280;2023-04-01T12:20:33;1.10;;;0.50;;
41512;SDS011;27244;59.940;30.280;2023-04-01T12:23:15;3.67;;;0.68;;
41512;SDS011;27244;59.940;30.280;2023-04-01T12:26:03;0.80;;;0.55;;
41512;SDS011;27244;59.940;30.280;2023-04-01T12:28:49;0.50;;;0.35;;
41512;SDS011;27244;59.940;30.280;2023-04-01T12:31:33;1.13;;;0.55;;
41512;SDS011;27244;59.940;30.280;2023-04-01T12:34:23;0.65;;;0.40;;
41512;SDS011;27244;59.940;30.280;2023-04-01T12:37:12;1.38;;;0.60;;
41512;SDS011;27244;59.940;30.280;2023-04-01T12:40:00;0.47;;;0.43;;
41512;SDS011;27244;59.940;30.280;2023-04-01T12:42:38;1.70;;;0.50;;
41512;SDS011;27244;59.940;30.280;2023-04-01T12:45:23;2.90;;;0.60;;
41512;SDS011;27244;59.940;30.280;2023-04-01T12:50:53;1.40;;;0.40;;
41512;SDS011;27244;59.940;30.280;2023-04-01T12:53:46;1.58;;;0.50;;
41512;SDS011;27244;59.940;30.280;2023-04-01T12:56:28;0.65;;;0.35;;
41512;SDS011;27244;59.940;30.280;2023-04-01T12:59:19;1.33;;;0.70;;
41512;SDS011;27244;59.940;30.280;2023-04-01T13:02:10;0.95;;;0.47;;
41512;SDS011;27244;59.940;30.280;2023-04-01T13:07:50;4.80;;;0.68;;
41512;SDS011;27244;59.940;30.280;2023-04-01T13:10:30;5.75;;;0.80;;
41512;SDS011;27244;59.940;30.280;2023-04-01T13:13:18;5.90;;;0.85;;
41512;SDS011;27244;59.940;30.280;2023-04-01T13:16:01;10.02;;;1.00;;
41512;SDS011;27244;59.940;30.280;2023-04-01T13:18:38;5.43;;;0.80;;
41512;SDS011;27244;59.940;30.280;2023-04-01T13:21:13;4.63;;;0.90;;
41512;SDS011;27244;59.940;30.280;2023-04-01T13:23:49;2.55;;;0.73;;
41512;SDS011;27244;59.940;30.280;2023-04-01T13:26:24;4.57;;;1.02;;
41512;SDS011;27244;59.940;30.280;2023-04-01T13:29:06;4.75;;;0.90;;
41512;SDS011;27244;59.940;30.280;2023-04-01T13:31:52;3.38;;;1.05;;
41512;SDS011;27244;59.940;30.280;2023-04-01T13:37:21;4.20;;;0.70;;
41512;SDS011;27244;59.940;30.280;2023-04-01T13:40:02;4.97;;;0.98;;
41512;SDS011;27244;59.940;30.280;2023-04-01T13:42:45;3.70;;;1.08;;
41512;SDS011;27244;59.940;30.280;2023-04-01T13:45:18;4.97;;;0.90;;
41512;SDS011;27244;59.940;30.280;2023-04-01T13:50:54;4.40;;;1.10;;
41512;SDS011;27244;59.940;30.280;2023-04-01T13:54:00;1.83;;;0.90;;
41512;SDS011;27244;59.940;30.280;2023-04-01T13:56:44;2.45;;;1.17;;
41512;SDS011;27244;59.940;30.280;2023-04-01T13:59:43;2.00;;;1.00;;
41512;SDS011;27244;59.940;30.280;2023-04-01T14:02:28;2.28;;;1.00;;
41512;SDS011;27244;59.940;30.280;2023-04-01T14:08:15;6.75;;;1.08;;
41512;SDS011;27244;59.940;30.280;2023-04-01T14:10:55;2.67;;;1.10;;
41512;SDS011;27244;59.940;30.280;2023-04-01T14:13:44;4.70;;;0.90;;
41512;SDS011;27244;59.940;30.280;2023-04-01T14:16:35;2.88;;;1.08;;
41512;SDS011;27244;59.940;30.280;2023-04-01T14:22:28;1.88;;;1.15;;
41512;SDS011;27244;59.940;30.280;2023-04-01T14:25:12;1.95;;;1.08;;
41512;SDS011;27244;59.940;30.280;2023-04-01T14:27:56;1.67;;;1.00;;
41512;SDS011;27244;59.940;30.280;2023-04-01T14:30:48;2.35;;;1.10;;
41512;SDS011;27244;59.940;30.280;2023-04-01T14:33:28;4.45;;;0.90;;
41512;SDS011;27244;59.940;30.280;2023-04-01T14:39:19;3.20;;;0.98;;
41512;SDS011;27244;59.940;30.280;2023-04-01T14:42:02;3.92;;;0.93;;
41512;SDS011;27244;59.940;30.280;2023-04-01T14:44:50;1.35;;;0.88;;
41512;SDS011;27244;59.940;30.280;2023-04-01T14:50:18;4.20;;;1.02;;
41512;SDS011;27244;59.940;30.280;2023-04-01T14:52:56;2.88;;;0.75;;
41512;SDS011;27244;59.940;30.280;2023-04-01T14:55:31;2.45;;;0.93;;
41512;SDS011;27244;59.940;30.280;2023-04-01T14:58:04;1.45;;;0.80;;
41512;SDS011;27244;59.940;30.280;2023-04-01T15:00:47;4.40;;;1.08;;
41512;SDS011;27244;59.940;30.280;2023-04-01T15:03:18;2.45;;;0.80;;
41512;SDS011;27244;59.940;30.280;2023-04-01T15:05:52;1.38;;;0.68;;
41512;SDS011;27244;59.940;30.280;2023-04-01T15:08:23;2.97;;;1.20;;
41512;SDS011;27244;59.940;30.280;2023-04-01T15:13:57;2.08;;;0.80;;
41512;SDS011;27244;59.940;30.280;2023-04-01T15:19:10;2.65;;;0.80;;
41512;SDS011;27244;59.940;30.280;2023-04-01T15:24:44;1.33;;;0.75;;
41512;SDS011;27244;59.940;30.280;2023-04-01T15:27:20;1.90;;;1.00;;
41512;SDS011;27244;59.940;30.280;2023-04-01T15:29:59;0.75;;;0.50;;
41512;SDS011;27244;59.940;30.280;2023-04-01T15:32:42;2.92;;;0.65;;
41512;SDS011;27244;59.940;30.280;2023-04-01T15:35:27;1.58;;;0.80;;
41512;SDS011;27244;59.940;30.280;2023-04-01T15:38:04;2.13;;;0.82;;
41512;SDS011;27244;59.940;30.280;2023-04-01T15:40:40;1.45;;;0.80;;
41512;SDS011;27244;59.940;30.280;2023-04-01T15:43:30;2.05;;;1.13;;
41512;SDS011;27244;59.940;30.280;2023-04-01T15:46:17;3.58;;;0.90;;
41512;SDS011;27244;59.940;30.280;2023-04-01T15:57:38;0.88;;;0.60;;
41512;SDS011;27244;59.940;30.280;2023-04-01T16:00:22;1.08;;;0.80;;
41512;SDS011;27244;59.940;30.280;2023-04-01T16:02:58;1.23;;;0.70;;
41512;SDS011;27244;59.940;30.280;2023-04-01T16:05:43;2.08;;;0.70;;
41512;SDS011;27244;59.940;30.280;2023-04-01T16:14:30;1.60;;;0.60;;
41512;SDS011;27244;59.940;30.280;2023-04-01T16:17:29;0.80;;;0.60;;
41512;SDS011;27244;59.940;30.280;2023-04-01T16:20:13;0.98;;;0.60;;
41512;SDS011;27244;59.940;30.280;2023-04-01T16:22:49;1.20;;;0.47;;
41512;SDS011;27244;59.940;30.280;2023-04-01T16:25:31;0.73;;;0.40;;
41512;SDS011;27244;59.940;30.280;2023-04-01T16:28:08;0.93;;;0.55;;
41512;SDS011;27244;59.940;30.280;2023-04-01T16:30:47;1.02;;;0.50;;
41512;SDS011;27244;59.940;30.280;2023-04-01T16:33:21;0.95;;;0.57;;
41512;SDS011;27244;59.940;30.280;2023-04-01T16:35:58;1.88;;;0.50;;
41512;SDS011;27244;59.940;30.280;2023-04-01T16:38:33;1.23;;;0.60;;
41512;SDS011;27244;59.940;30.280;2023-04-01T16:41:10;1.45;;;0.50;;
41512;SDS011;27244;59.940;30.280;2023-04-01T16:43:43;1.10;;;0.40;;
41512;SDS011;27244;59.940;30.280;2023-04-01T16:46:27;0.73;;;0.60;;
41512;SDS011;27244;59.940;30.280;2023-04-01T16:49:00;0.45;;;0.40;;
41512;SDS011;27244;59.940;30.280;2023-04-01T16:51:40;1.17;;;0.63;;
41512;SDS011;27244;59.940;30.280;2023-04-01T16:54:14;1.38;;;0.50;;
41512;SDS011;27244;59.940;30.280;2023-04-01T16:56:55;1.52;;;0.38;;
41512;SDS011;27244;59.940;30.280;2023-04-01T16:59:33;1.08;;;0.47;;
41512;SDS011;27244;59.940;30.280;2023-04-01T17:02:02;0.88;;;0.50;;
41512;SDS011;27244;59.940;30.280;2023-04-01T17:04:37;0.75;;;0.40;;
41512;SDS011;27244;59.940;30.280;2023-04-01T17:07:18;1.80;;;0.52;;
41512;SDS011;27244;59.940;30.280;2023-04-01T17:09:59;2.00;;;0.40;;
41512;SDS011;27244;59.940;30.280;2023-04-01T17:12:46;0.60;;;0.60;;
41512;SDS011;27244;59.940;30.280;2023-04-01T17:15:26;0.98;;;0.47;;
41512;SDS011;27244;59.940;30.280;2023-04-01T17:18:01;1.85;;;0.55;;
41512;SDS011;27244;59.940;30.280;2023-04-01T17:20:40;1.00;;;0.40;;
41512;SDS011;27244;59.940;30.280;2023-04-01T17:23:14;1.83;;;0.50;;
41512;SDS011;27244;59.940;30.280;2023-04-01T17:25:57;0.60;;;0.40;;
41512;SDS011;27244;59.940;30.280;2023-04-01T17:28:46;0.95;;;0.38;;
41512;SDS011;27244;59.940;30.280;2023-04-01T17:34:16;0.50;;;0.40;;
41512;SDS011;27244;59.940;30.280;2023-04-01T17:36:58;2.15;;;0.52;;
41512;SDS011;27244;59.940;30.280;2023-04-01T17:39:39;1.40;;;0.50;;
41512;SDS011;27244;59.940;30.280;2023-04-01T17:42:19;0.95;;;0.40;;